Time;durP1;ratioP1;P1;durP2;ratioP2;P2;SDS_P1;SDS_P2;PMS_P1;PMS_P2;Temp;Humidity;BMP_temperature;BMP_pressure;BME280_temperature;BME280_humidity;BME280_pressure;Samples;Min_cycle;Max_cycle;Signal;HPM_P1;HPM_P2
2023/10/01 00:01:40;;;;;;;;;;;20.80;69.30;;;;;;5074086;28;2292;-65
2023/10/01 00:04:07;;;;;;;;;;;20.80;69.30;;;;;;5059487;28;1020;-65
2023/10/01 00:06:35;;;;;;;;;;;20.80;69.30;;;;;;5075848;28;1308;-65
2023/10/01 00:09:01;;;;;;;;;;;20.80;69.40;;;;;;5077041;28;1357;-65
2023/10/01 00:11:27;;;;;;;;;;;20.80;69.40;;;;;;5074278;28;1440;-65
2023/10/01 00:13:53;;;;;;;;;;;20.80;69.40;;;;;;5074004;28;1308;-65
2023/10/01 00:16:18;;;;;;;;;;;20.80;69.40;;;;;;5075828;28;1737;-65
2023/10/01 00:18:46;;;;;;;;;;;20.80;69.40;;;;;;5077063;28;1367;-65
2023/10/01 00:21:12;;;;;;;;;;;20.80;69.40;;;;;;5074744;28;1984;-65
2023/10/01 00:23:38;;;;;;;;;;;20.80;69.40;;;;;;5076252;28;1574;-65
2023/10/01 00:26:04;;;;;;;;;;;20.80;69.40;;;;;;5075783;28;1430;-65
2023/10/01 00:28:29;;;;;;;;;;;20.80;69.40;;;;;;5076168;28;1434;-65
2023/10/01 00:30:56;;;;;;;;;;;20.80;69.40;;;;;;5074481;28;1320;-65
2023/10/01 00:33:22;;;;;;;;;;;20.80;69.40;;;;;;5072253;28;1311;-65
2023/10/01 00:35:47;;;;;;;;;;;20.80;69.40;;;;;;5073854;28;1313;-65
2023/10/01 00:38:13;;;;;;;;;;;20.80;69.40;;;;;;5072502;28;1277;-65
2023/10/01 00:40:42;;;;;;;;;;;20.80;69.50;;;;;;5074426;28;1964;-65
2023/10/01 00:43:08;;;;;;;;;;;20.80;69.50;;;;;;5078923;28;1353;-65
2023/10/01 00:45:34;;;;;;;;;;;20.80;69.50;;;;;;5076169;28;1584;-65
2023/10/01 00:48:03;;;;;;;;;;;20.80;69.50;;;;;;5080441;28;1372;-65
2023/10/01 00:50:30;;;;;;;;;;;20.80;69.50;;;;;;5081934;28;1665;-65
2023/10/01 00:52:57;;;;;;;;;;;20.80;69.50;;;;;;5060809;28;1375;-64
2023/10/01 00:55:22;;;;;;;;;;;20.80;69.50;;;;;;5078295;28;1362;-65
2023/10/01 00:57:49;;;;;;;;;;;20.80;69.50;;;;;;5077669;28;1274;-65
2023/10/01 01:00:16;;;;;;;;;;;20.80;69.60;;;;;;5076796;28;1975;-65
2023/10/01 01:03:19;;;;;;;;;;;20.80;69.60;;;;;;5050143;28;1327;-65
2023/10/01 01:05:57;;;;;;;;;;;20.80;69.60;;;;;;5057998;28;1401;-65
2023/10/01 01:08:33;;;;;;;;;;;20.80;69.60;;;;;;5075555;28;1397;-65
2023/10/01 01:11:01;;;;;;;;;;;20.80;69.60;;;;;;5075846;28;1380;-65
2023/10/01 01:13:28;;;;;;;;;;;20.80;69.60;;;;;;5060923;28;1404;-65
2023/10/01 01:15:57;;;;;;;;;;;20.80;69.60;;;;;;5076857;28;1355;-65
2023/10/01 01:18:26;;;;;;;;;;;20.80;69.70;;;;;;5077319;28;1567;-65
2023/10/01 01:20:57;;;;;;;;;;;20.80;69.70;;;;;;5076917;28;1961;-65
2023/10/01 01:23:24;;;;;;;;;;;20.80;69.60;;;;;;5077869;28;1475;-65
2023/10/01 01:25:52;;;;;;;;;;;20.80;69.70;;;;;;5057491;28;1336;-65
2023/10/01 01:28:32;;;;;;;;;;;20.80;69.70;;;;;;5076426;28;1518;-65
2023/10/01 01:31:01;;;;;;;;;;;20.80;69.70;;;;;;5078699;28;1237;-65
2023/10/01 01:33:31;;;;;;;;;;;20.80;69.70;;;;;;5061812;28;1488;-65
2023/10/01 01:36:06;;;;;;;;;;;20.80;69.70;;;;;;5075407;28;1331;-65
2023/10/01 01:38:32;;;;;;;;;;;20.80;69.70;;;;;;5076741;28;1319;-65
2023/10/01 01:40:57;;;;;;;;;;;20.80;69.70;;;;;;5078386;28;2009;-65
2023/10/01 01:43:23;;;;;;;;;;;20.80;69.70;;;;;;5081571;28;1361;-65
2023/10/01 01:45:54;;;;;;;;;;;20.80;69.70;;;;;;5078926;28;1268;-65
2023/10/01 01:48:30;;;;;;;;;;;20.80;69.70;;;;;;5079802;28;1348;-66
2023/10/01 01:50:58;;;;;;;;;;;20.80;69.70;;;;;;5074670;28;1337;-66
2023/10/01 01:53:26;;;;;;;;;;;20.80;69.70;;;;;;5075982;28;1232;-66
2023/10/01 01:55:56;;;;;;;;;;;20.80;69.70;;;;;;5078293;28;1378;-66
2023/10/01 01:58:24;;;;;;;;;;;20.80;69.80;;;;;;5060827;28;1454;-66
2023/10/01 02:01:08;;;;;;;;;;;20.80;69.80;;;;;;5074314;28;1999;-66
2023/10/01 02:03:34;;;;;;;;;;;20.80;69.70;;;;;;5076605;28;1280;-66
2023/10/01 02:06:00;;;;;;;;;;;20.80;69.80;;;;;;5058431;28;1387;-65
2023/10/01 02:08:35;;;;;;;;;;;20.80;69.80;;;;;;5042335;28;1736;-65
2023/10/01 02:11:04;;;;;;;;;;;20.70;69.80;;;;;;5077387;28;1269;-66
2023/10/01 02:13:29;;;;;;;;;;;20.80;69.90;;;;;;5081046;28;1326;-66
2023/10/01 02:15:55;;;;;;;;;;;20.80;69.80;;;;;;5078200;28;1359;-66
2023/10/01 02:18:20;;;;;;;;;;;20.80;69.90;;;;;;5077456;28;1358;-66
2023/10/01 02:20:52;;;;;;;;;;;20.80;69.80;;;;;;5074421;28;1973;-66
2023/10/01 02:23:26;;;;;;;;;;;20.70;69.80;;;;;;5076125;28;1465;-66
2023/10/01 02:25:57;;;;;;;;;;;20.70;69.80;;;;;;5076561;28;1429;-66
2023/10/01 02:28:23;;;;;;;;;;;20.70;69.90;;;;;;5060099;28;1378;-66
2023/10/01 02:30:57;;;;;;;;;;;20.80;69.90;;;;;;5079049;28;1232;-66
2023/10/01 02:33:24;;;;;;;;;;;20.80;69.90;;;;;;5081600;28;1554;-66
2023/10/01 02:35:55;;;;;;;;;;;20.70;69.90;;;;;;5077353;28;1302;-65
2023/10/01 02:41:08;;;;;;;;;;;20.80;69.90;;;;;;5057129;28;1971;-65
2023/10/01 02:43:34;;;;;;;;;;;20.80;70.00;;;;;;5077085;28;1428;-65
2023/10/01 02:46:26;;;;;;;;;;;20.80;70.00;;;;;;5077066;28;1284;-66
2023/10/01 02:48:59;;;;;;;;;;;20.70;69.90;;;;;;5079812;28;934;-65
2023/10/01 02:51:32;;;;;;;;;;;20.80;70.00;;;;;;5079082;28;1248;-65
2023/10/01 02:54:01;;;;;;;;;;;20.80;69.90;;;;;;5076471;28;926;-65
2023/10/01 02:56:33;;;;;;;;;;;20.70;69.90;;;;;;5076747;28;1384;-65
2023/10/01 02:59:08;;;;;;;;;;;20.80;70.00;;;;;;5059603;28;1133;-65
2023/10/01 03:01:34;;;;;;;;;;;20.70;69.90;;;;;;5075955;28;1906;-65
2023/10/01 03:04:05;;;;;;;;;;;20.80;70.80;;;;;;5073831;28;1267;-65
2023/10/01 03:06:33;;;;;;;;;;;20.70;69.90;;;;;;5070883;28;1343;-66
2023/10/01 03:11:23;;;;;;;;;;;20.70;70.00;;;;;;5057472;28;1325;-65
2023/10/01 03:13:50;;;;;;;;;;;20.80;70.00;;;;;;5074306;28;1309;-65
2023/10/01 03:19:17;;;;;;;;;;;20.80;70.00;;;;;;5075142;28;1190;-65
2023/10/01 03:24:28;;;;;;;;;;;20.80;70.00;;;;;;5075716;28;1396;-66
2023/10/01 03:26:57;;;;;;;;;;;20.80;70.10;;;;;;5075394;28;1292;-66
2023/10/01 03:29:34;;;;;;;;;;;20.70;70.00;;;;;;5075571;28;1296;-66
2023/10/01 03:32:26;;;;;;;;;;;20.80;70.10;;;;;;5075827;28;1366;-66
2023/10/01 03:34:52;;;;;;;;;;;20.80;70.10;;;;;;5076156;28;1327;-66
2023/10/01 03:37:19;;;;;;;;;;;20.70;70.80;;;;;;5075672;28;1029;-66
2023/10/01 03:39:46;;;;;;;;;;;20.70;70.10;;;;;;5074739;28;1910;-66
2023/10/01 03:42:17;;;;;;;;;;;20.70;70.10;;;;;;5076806;28;1139;-66
2023/10/01 03:47:29;;;;;;;;;;;20.70;70.10;;;;;;5075664;28;1332;-66
2023/10/01 03:49:55;;;;;;;;;;;20.70;70.10;;;;;;5074550;28;1244;-66
2023/10/01 03:52:21;;;;;;;;;;;20.70;70.10;;;;;;5074457;28;1341;-66
2023/10/01 03:55:00;;;;;;;;;;;20.80;70.20;;;;;;5075226;28;1286;-67
2023/10/01 03:57:25;;;;;;;;;;;20.80;70.20;;;;;;5076102;28;1440;-66
2023/10/01 03:59:52;;;;;;;;;;;20.80;70.20;;;;;;5062469;28;1925;-65
2023/10/01 04:02:47;;;;;;;;;;;20.70;70.10;;;;;;5072819;28;1547;-65
2023/10/01 04:05:23;;;;;;;;;;;20.70;70.10;;;;;;5073898;28;1430;-65
2023/10/01 04:07:48;;;;;;;;;;;20.70;70.20;;;;;;5063127;28;1319;-65
2023/10/01 04:10:15;;;;;;;;;;;20.70;70.10;;;;;;5076211;28;1611;-66
2023/10/01 04:12:44;;;;;;;;;;;20.70;70.10;;;;;;5078570;28;1730;-65
2023/10/01 04:15:10;;;;;;;;;;;20.70;70.10;;;;;;5060156;28;1498;-65
2023/10/01 04:17:36;;;;;;;;;;;20.70;70.20;;;;;;5078993;28;1466;-65
2023/10/01 04:20:11;;;;;;;;;;;20.70;70.10;;;;;;5081595;28;1913;-65
2023/10/01 04:22:40;;;;;;;;;;;20.70;70.10;;;;;;5080657;28;1420;-65
2023/10/01 04:25:10;;;;;;;;;;;20.80;70.20;;;;;;5080484;28;1370;-65
2023/10/01 04:27:41;;;;;;;;;;;20.80;70.20;;;;;;5081130;28;1391;-65
2023/10/01 04:30:08;;;;;;;;;;;20.80;70.20;;;;;;5062527;28;1462;-65
2023/10/01 04:32:34;;;;;;;;;;;20.70;70.20;;;;;;5055780;28;1062;-65
2023/10/01 04:35:00;;;;;;;;;;;20.70;70.20;;;;;;5077907;28;1441;-65
2023/10/01 04:37:37;;;;;;;;;;;20.70;70.20;;;;;;5077544;28;1243;-65
2023/10/01 04:40:31;;;;;;;;;;;20.80;70.30;;;;;;5079131;28;1966;-66
2023/10/01 04:43:01;;;;;;;;;;;20.70;70.20;;;;;;5077816;28;1464;-66
2023/10/01 04:45:36;;;;;;;;;;;20.80;70.30;;;;;;5061615;28;1433;-66
2023/10/01 04:48:15;;;;;;;;;;;20.70;70.20;;;;;;5079948;28;1550;-66
2023/10/01 04:50:42;;;;;;;;;;;20.80;70.30;;;;;;5062475;28;1707;-67
2023/10/01 04:53:07;;;;;;;;;;;20.70;70.20;;;;;;5060248;28;1396;-67
2023/10/01 04:55:41;;;;;;;;;;;20.70;70.20;;;;;;5076759;28;1435;-67
2023/10/01 04:58:15;;;;;;;;;;;20.80;70.30;;;;;;5041688;28;1517;-67
2023/10/01 05:00:41;;;;;;;;;;;20.70;70.30;;;;;;5078470;28;1918;-65
2023/10/01 05:03:08;;;;;;;;;;;20.70;70.30;;;;;;5076478;28;1258;-65
2023/10/01 05:05:36;;;;;;;;;;;20.70;70.30;;;;;;5081746;28;1641;-66
2023/10/01 05:08:02;;;;;;;;;;;20.80;70.30;;;;;;5078580;28;1526;-66
2023/10/01 05:10:27;;;;;;;;;;;20.70;70.30;;;;;;5061720;28;1334;-66
2023/10/01 05:13:02;;;;;;;;;;;20.70;70.30;;;;;;5078527;28;1466;-66
2023/10/01 05:15:36;;;;;;;;;;;20.70;70.30;;;;;;5078209;28;1431;-66
2023/10/01 05:18:02;;;;;;;;;;;20.70;70.30;;;;;;5079249;28;1185;-66
2023/10/01 05:20:28;;;;;;;;;;;20.70;70.30;;;;;;5076383;28;1960;-65
2023/10/01 05:22:55;;;;;;;;;;;20.70;70.30;;;;;;5080830;28;1420;-66
2023/10/01 05:25:21;;;;;;;;;;;20.70;70.30;;;;;;5079736;28;1443;-66
2023/10/01 05:27:46;;;;;;;;;;;20.80;70.40;;;;;;5058590;28;1248;-66
2023/10/01 05:30:32;;;;;;;;;;;20.70;70.30;;;;;;5076270;28;1318;-66
2023/10/01 05:32:58;;;;;;;;;;;20.80;70.40;;;;;;5080305;28;1435;-66
2023/10/01 05:35:24;;;;;;;;;;;20.70;70.30;;;;;;5077538;28;1434;-66
2023/10/01 05:37:50;;;;;;;;;;;20.70;70.30;;;;;;5077292;28;1143;-66
2023/10/01 05:40:15;;;;;;;;;;;20.80;70.40;;;;;;5077968;28;1910;-66
2023/10/01 05:42:41;;;;;;;;;;;20.70;70.40;;;;;;5077886;28;1215;-66
2023/10/01 05:45:14;;;;;;;;;;;20.70;70.30;;;;;;5060833;28;1342;-66
2023/10/01 05:47:51;;;;;;;;;;;20.70;70.40;;;;;;5077030;28;1179;-67
2023/10/01 05:50:18;;;;;;;;;;;20.70;70.40;;;;;;5077980;28;1317;-66
2023/10/01 05:52:45;;;;;;;;;;;20.80;70.40;;;;;;5078844;28;974;-66
2023/10/01 05:55:15;;;;;;;;;;;20.70;70.40;;;;;;5059020;28;1307;-66
2023/10/01 05:57:44;;;;;;;;;;;20.70;70.40;;;;;;5049910;28;1038;-65
2023/10/01 06:00:18;;;;;;;;;;;20.80;70.50;;;;;;5073359;28;1969;-67
2023/10/01 06:02:47;;;;;;;;;;;20.70;70.30;;;;;;5079084;28;1136;-67
2023/10/01 06:05:32;;;;;;;;;;;20.70;69.50;;;;;;5059106;28;1364;-67
2023/10/01 06:07:58;;;;;;;;;;;20.70;69.90;;;;;;5068929;28;1836;-67
2023/10/01 06:10:26;;;;;;;;;;;20.80;69.10;;;;;;5062890;28;1275;-68
2023/10/01 06:12:57;;;;;;;;;;;20.80;68.80;;;;;;5076228;28;1478;-67
2023/10/01 06:15:29;;;;;;;;;;;20.70;68.60;;;;;;5075211;28;1447;-66
2023/10/01 06:17:55;;;;;;;;;;;20.80;67.80;;;;;;5079934;28;1055;-67
2023/10/01 06:20:26;;;;;;;;;;;20.70;67.70;;;;;;5076453;28;1992;-66
2023/10/01 06:22:55;;;;;;;;;;;20.70;67.10;;;;;;5078691;28;1453;-65
2023/10/01 06:25:37;;;;;;;;;;;20.70;67.40;;;;;;5075014;28;1490;-65
2023/10/01 06:28:17;;;;;;;;;;;20.70;67.00;;;;;;5074840;28;1387;-66
2023/10/01 06:30:43;;;;;;;;;;;20.70;66.10;;;;;;5074937;28;1663;-66
2023/10/01 06:33:24;;;;;;;;;;;20.70;66.00;;;;;;5076480;28;1352;-66
2023/10/01 06:38:41;;;;;;;;;;;20.70;65.80;;;;;;5061897;28;1537;-66
2023/10/01 06:41:13;;;;;;;;;;;20.70;65.80;;;;;;5057809;28;1905;-66
2023/10/01 06:43:54;;;;;;;;;;;20.70;65.70;;;;;;5077170;28;1263;-65
2023/10/01 06:46:29;;;;;;;;;;;20.70;65.60;;;;;;5056442;28;1347;-65
2023/10/01 06:48:56;;;;;;;;;;;20.70;65.30;;;;;;5058162;28;880;-67
2023/10/01 06:51:22;;;;;;;;;;;20.70;64.80;;;;;;5063742;28;4488;-67
2023/10/01 06:53:48;;;;;;;;;;;20.60;65.00;;;;;;5071401;28;3643;-67
2023/10/01 06:56:17;;;;;;;;;;;20.70;64.90;;;;;;5074383;28;2017;-66
2023/10/01 07:01:42;;;;;;;;;;;20.70;64.90;;;;;;5076379;28;1973;-66
2023/10/01 07:04:11;;;;;;;;;;;20.60;64.50;;;;;;5062892;28;2092;-66
2023/10/01 07:06:37;;;;;;;;;;;20.60;64.30;;;;;;5056378;28;1503;-66
2023/10/01 07:09:07;;;;;;;;;;;20.60;64.60;;;;;;5058843;28;1606;-66
2023/10/01 07:11:33;;;;;;;;;;;20.60;64.50;;;;;;5060329;28;1633;-66
2023/10/01 07:14:03;;;;;;;;;;;20.60;64.60;;;;;;5061195;28;1333;-66
2023/10/01 07:16:35;;;;;;;;;;;20.60;64.30;;;;;;5073250;28;1444;-66
2023/10/01 07:19:03;;;;;;;;;;;20.60;64.70;;;;;;5075985;28;1496;-66
2023/10/01 07:21:28;;;;;;;;;;;20.60;64.20;;;;;;5074680;28;1906;-66
2023/10/01 07:23:54;;;;;;;;;;;20.60;64.40;;;;;;5073769;28;1336;-66
2023/10/01 07:26:19;;;;;;;;;;;20.60;64.20;;;;;;5074756;28;1466;-66
2023/10/01 07:28:55;;;;;;;;;;;20.60;64.20;;;;;;5074885;28;1264;-66
2023/10/01 07:31:22;;;;;;;;;;;20.60;64.00;;;;;;5074420;28;1303;-66
2023/10/01 07:33:49;;;;;;;;;;;20.60;64.30;;;;;;5072603;28;1543;-66
2023/10/01 07:36:17;;;;;;;;;;;20.60;64.90;;;;;;5076293;28;1367;-66
2023/10/01 07:38:56;;;;;;;;;;;20.60;64.00;;;;;;5075381;28;1498;-66
2023/10/01 07:41:23;;;;;;;;;;;20.60;64.00;;;;;;5075932;28;1906;-66
2023/10/01 07:43:49;;;;;;;;;;;20.60;63.80;;;;;;5076892;28;1246;-66
2023/10/01 07:46:15;;;;;;;;;;;20.60;64.00;;;;;;5079025;28;1759;-66
2023/10/01 07:48:47;;;;;;;;;;;20.60;63.70;;;;;;5074266;28;1621;-65
2023/10/01 07:51:26;;;;;;;;;;;20.60;63.40;;;;;;5072955;28;1432;-66
2023/10/01 07:53:57;;;;;;;;;;;20.60;64.20;;;;;;5060808;28;1448;-66
2023/10/01 07:56:22;;;;;;;;;;;20.60;63.50;;;;;;5076236;28;1297;-66
2023/10/01 07:59:16;;;;;;;;;;;20.60;63.70;;;;;;5055980;28;1548;-66
2023/10/01 08:01:45;;;;;;;;;;;20.60;63.50;;;;;;5060127;28;2011;-66
2023/10/01 08:07:15;;;;;;;;;;;20.60;63.50;;;;;;4998399;28;1713;-70
2023/10/01 08:09:40;;;;;;;;;;;20.60;63.60;;;;;;5021363;28;1502;-70
2023/10/01 08:12:12;;;;;;;;;;;20.60;63.50;;;;;;5027305;28;1329;-71
2023/10/01 08:14:40;;;;;;;;;;;20.60;63.60;;;;;;5039203;28;1918;-70
2023/10/01 08:17:07;;;;;;;;;;;20.60;63.60;;;;;;5038311;28;1334;-69
2023/10/01 08:20:14;;;;;;;;;;;20.60;63.40;;;;;;5037182;28;1296;-69
2023/10/01 08:22:23;;;;;;;;;;;20.60;63.50;;;;;;5023529;28;1520;-69
2023/10/01 08:24:49;;;;;;;;;;;20.60;63.40;;;;;;5039415;28;1617;-69
2023/10/01 08:27:29;;;;;;;;;;;20.60;63.40;;;;;;5013645;28;1544;-69
2023/10/01 08:32:41;;;;;;;;;;;20.60;63.30;;;;;;5038049;28;1467;-69
2023/10/01 08:35:06;;;;;;;;;;;20.60;63.50;;;;;;5040201;28;1414;-69
2023/10/01 08:37:37;;;;;;;;;;;20.60;63.20;;;;;;5037284;28;1814;-69
2023/10/01 08:40:13;;;;;;;;;;;20.60;63.50;;;;;;5038841;28;1898;-69
2023/10/01 08:42:45;;;;;;;;;;;20.60;63.20;;;;;;5034698;28;1372;-69
2023/10/01 08:45:12;;;;;;;;;;;20.60;63.20;;;;;;5023302;28;1478;-69
2023/10/01 08:47:37;;;;;;;;;;;20.60;63.30;;;;;;5022644;28;1247;-69
2023/10/01 08:50:29;;;;;;;;;;;20.60;63.20;;;;;;5036270;28;1397;-69
2023/10/01 08:53:00;;;;;;;;;;;20.60;63.10;;;;;;5024928;28;1454;-70
2023/10/01 08:55:27;;;;;;;;;;;20.60;63.10;;;;;;5023248;28;1390;-69
2023/10/01 08:57:55;;;;;;;;;;;20.60;63.10;;;;;;5039457;28;1780;-69
2023/10/01 09:00:24;;;;;;;;;;;20.60;63.00;;;;;;5038016;28;1953;-69
2023/10/01 09:02:50;;;;;;;;;;;20.60;62.80;;;;;;5028995;28;1461;-68
2023/10/01 09:05:24;;;;;;;;;;;20.50;62.70;;;;;;5045280;28;1444;-68
2023/10/01 09:07:51;;;;;;;;;;;20.60;63.00;;;;;;5044345;28;1325;-70
2023/10/01 09:10:18;;;;;;;;;;;20.60;62.80;;;;;;5043616;28;2066;-69
2023/10/01 09:12:47;;;;;;;;;;;20.60;62.70;;;;;;5028727;28;1480;-69
2023/10/01 09:15:21;;;;;;;;;;;20.60;62.90;;;;;;5026135;28;1581;-69
2023/10/01 09:17:56;;;;;;;;;;;20.60;62.80;;;;;;5027468;28;2037;-68
2023/10/01 09:20:35;;;;;;;;;;;20.60;62.80;;;;;;5047828;28;1910;-69
2023/10/01 09:23:01;;;;;;;;;;;20.60;62.90;;;;;;5025919;28;1318;-69
2023/10/01 09:25:26;;;;;;;;;;;20.60;63.10;;;;;;5044309;28;1524;-69
2023/10/01 09:27:59;;;;;;;;;;;20.50;62.90;;;;;;5038853;28;1340;-69
2023/10/01 09:30:31;;;;;;;;;;;20.60;63.10;;;;;;5040871;28;1488;-68
2023/10/01 09:33:04;;;;;;;;;;;20.60;63.00;;;;;;5027446;28;1157;-67
2023/10/01 09:35:42;;;;;;;;;;;20.60;63.10;;;;;;5041336;28;1284;-67
2023/10/01 09:38:12;;;;;;;;;;;20.60;63.10;;;;;;5040804;28;1391;-67
2023/10/01 09:40:44;;;;;;;;;;;20.60;63.10;;;;;;5044517;28;1910;-68
2023/10/01 09:43:24;;;;;;;;;;;20.60;63.00;;;;;;5043976;28;1350;-67
2023/10/01 09:45:51;;;;;;;;;;;20.50;62.90;;;;;;5043428;28;1283;-67
2023/10/01 09:48:30;;;;;;;;;;;20.60;63.00;;;;;;5024191;28;1513;-69
2023/10/01 09:51:08;;;;;;;;;;;20.60;62.80;;;;;;5039967;28;1259;-68
2023/10/01 09:53:54;;;;;;;;;;;20.60;62.50;;;;;;5028033;28;1578;-68
2023/10/01 09:56:29;;;;;;;;;;;20.50;62.40;;;;;;5038965;28;1338;-68
2023/10/01 09:59:07;;;;;;;;;;;20.60;62.20;;;;;;5040426;28;1462;-68
2023/10/01 10:01:36;;;;;;;;;;;20.60;61.80;;;;;;5042465;28;1994;-68
2023/10/01 10:04:03;;;;;;;;;;;20.50;61.80;;;;;;5042460;28;2098;-67
2023/10/01 10:06:29;;;;;;;;;;;20.60;61.80;;;;;;5015942;28;1436;-68
2023/10/01 10:09:03;;;;;;;;;;;20.60;62.10;;;;;;5041368;28;1498;-67
2023/10/01 10:11:29;;;;;;;;;;;20.60;62.10;;;;;;5043007;28;1255;-68
2023/10/01 10:13:57;;;;;;;;;;;20.60;62.30;;;;;;5022666;28;1347;-68
2023/10/01 10:16:32;;;;;;;;;;;20.60;62.60;;;;;;5042328;28;1578;-67
2023/10/01 10:19:04;;;;;;;;;;;20.60;62.40;;;;;;5042486;28;1461;-67
2023/10/01 10:21:49;;;;;;;;;;;20.60;61.90;;;;;;5039619;28;1898;-68
2023/10/01 10:24:21;;;;;;;;;;;20.60;62.00;;;;;;5042708;28;1364;-69
2023/10/01 10:27:06;;;;;;;;;;;20.60;62.00;;;;;;5040261;28;1441;-68
2023/10/01 10:29:57;;;;;;;;;;;20.60;62.00;;;;;;5040581;28;1365;-68
2023/10/01 10:32:29;;;;;;;;;;;20.60;62.00;;;;;;5041308;28;1509;-68
2023/10/01 10:35:03;;;;;;;;;;;20.60;61.30;;;;;;5041643;28;1377;-68
2023/10/01 10:37:45;;;;;;;;;;;20.70;61.00;;;;;;5038154;28;1513;-67
2023/10/01 10:42:42;;;;;;;;;;;20.70;61.00;;;;;;5043314;28;1282;-67
2023/10/01 10:45:20;;;;;;;;;;;20.70;61.20;;;;;;5023859;28;1326;-67
2023/10/01 10:47:58;;;;;;;;;;;20.70;61.50;;;;;;5023186;28;1582;-68
2023/10/01 10:50:46;;;;;;;;;;;20.70;61.60;;;;;;5037677;28;1404;-68
2023/10/01 10:53:15;;;;;;;;;;;20.70;62.50;;;;;;5042195;28;1302;-67
2023/10/01 10:56:02;;;;;;;;;;;20.70;61.40;;;;;;5013687;28;2031;-69
2023/10/01 10:58:46;;;;;;;;;;;20.70;61.90;;;;;;5040516;28;1353;-68
2023/10/01 11:01:15;;;;;;;;;;;20.70;61.70;;;;;;5025216;28;1902;-69
2023/10/01 11:03:41;;;;;;;;;;;20.70;61.80;;;;;;5023187;28;1259;-70
2023/10/01 11:06:16;;;;;;;;;;;20.70;61.80;;;;;;5025097;28;1342;-69
2023/10/01 11:08:51;;;;;;;;;;;20.70;61.70;;;;;;5041712;28;1214;-67
2023/10/01 11:11:23;;;;;;;;;;;20.70;62.10;;;;;;5040852;28;1050;-69
2023/10/01 11:13:59;;;;;;;;;;;20.70;61.90;;;;;;5039950;28;1395;-69
2023/10/01 11:16:37;;;;;;;;;;;20.70;61.10;;;;;;5023110;28;1877;-68
2023/10/01 11:19:12;;;;;;;;;;;20.70;61.30;;;;;;5040919;28;1271;-68
2023/10/01 11:21:46;;;;;;;;;;;20.70;61.40;;;;;;5013962;28;1910;-68
2023/10/01 11:24:13;;;;;;;;;;;20.70;61.40;;;;;;5042046;28;1804;-68
2023/10/01 11:27:20;;;;;;;;;;;20.70;61.20;;;;;;5040709;28;1300;-67
2023/10/01 11:29:58;;;;;;;;;;;20.70;61.40;;;;;;4992289;28;5085;-68
2023/10/01 11:32:58;;;;;;;;;;;20.70;61.40;;;;;;5036718;28;1148;-68
2023/10/01 11:35:34;;;;;;;;;;;20.70;61.00;;;;;;5040213;28;1347;-68
2023/10/01 11:38:13;;;;;;;;;;;20.70;61.00;;;;;;5024071;28;1357;-68
2023/10/01 11:43:23;;;;;;;;;;;20.70;61.60;;;;;;5022235;28;1633;-69
2023/10/01 11:46:18;;;;;;;;;;;20.70;61.50;;;;;;5041461;28;1492;-71
2023/10/01 11:48:56;;;;;;;;;;;20.70;61.60;;;;;;5039403;28;1996;-71
2023/10/01 11:51:32;;;;;;;;;;;20.70;61.50;;;;;;5039690;28;1411;-68
2023/10/01 11:53:58;;;;;;;;;;;20.70;61.90;;;;;;5040346;28;1517;-71
2023/10/01 11:56:23;;;;;;;;;;;20.70;61.70;;;;;;5025616;28;1337;-70
2023/10/01 11:58:48;;;;;;;;;;;20.70;61.40;;;;;;5043026;28;1441;-70
2023/10/01 12:01:14;;;;;;;;;;;20.70;61.90;;;;;;5023662;28;1901;-69
2023/10/01 12:03:39;;;;;;;;;;;20.70;62.00;;;;;;5021474;28;2019;-69
2023/10/01 12:06:05;;;;;;;;;;;20.70;62.20;;;;;;5039964;28;1447;-68
2023/10/01 12:08:43;;;;;;;;;;;20.70;62.40;;;;;;5041337;28;1357;-68
2023/10/01 12:11:27;;;;;;;;;;;20.70;62.70;;;;;;5042514;28;1596;-68
2023/10/01 12:14:27;;;;;;;;;;;20.70;62.90;;;;;;5041010;28;1382;-68
2023/10/01 12:16:45;;;;;;;;;;;20.70;63.10;;;;;;5038251;28;1534;-70
2023/10/01 12:19:22;;;;;;;;;;;20.70;63.10;;;;;;5024924;28;1367;-69
2023/10/01 12:22:04;;;;;;;;;;;20.70;63.20;;;;;;5039114;28;1964;-69
2023/10/01 12:24:39;;;;;;;;;;;20.70;63.30;;;;;;5041786;28;1413;-72
2023/10/01 12:27:29;;;;;;;;;;;20.70;63.40;;;;;;5026306;28;1338;-70
2023/10/01 12:29:55;;;;;;;;;;;20.70;63.50;;;;;;5040409;28;1309;-70
2023/10/01 12:32:21;;;;;;;;;;;20.70;63.60;;;;;;5041862;28;1599;-70
2023/10/01 12:34:46;;;;;;;;;;;20.70;63.70;;;;;;5040435;28;1562;-70
2023/10/01 12:40:14;;;;;;;;;;;20.70;63.90;;;;;;5044210;28;1250;-69
2023/10/01 12:42:40;;;;;;;;;;;20.70;64.00;;;;;;5047140;28;1287;-70
2023/10/01 12:45:19;;;;;;;;;;;20.70;64.00;;;;;;5032563;28;1460;-70
2023/10/01 12:47:51;;;;;;;;;;;20.70;64.10;;;;;;5025588;28;1391;-70
2023/10/01 12:50:59;;;;;;;;;;;20.70;64.10;;;;;;5029075;28;2011;-71
2023/10/01 12:53:20;;;;;;;;;;;20.70;65.00;;;;;;5035581;28;1906;-70
2023/10/01 12:55:52;;;;;;;;;;;20.70;64.40;;;;;;5041691;28;1471;-71
2023/10/01 12:58:35;;;;;;;;;;;20.70;64.40;;;;;;5045216;28;1096;-69
2023/10/01 13:01:02;;;;;;;;;;;20.70;64.50;;;;;;5043151;28;1902;-70
2023/10/01 13:03:29;;;;;;;;;;;20.70;64.50;;;;;;5045185;28;1793;-69
2023/10/01 13:05:55;;;;;;;;;;;20.70;64.60;;;;;;5043768;28;1367;-70
2023/10/01 13:08:29;;;;;;;;;;;20.70;64.70;;;;;;5021641;28;1533;-70
2023/10/01 13:10:55;;;;;;;;;;;20.70;64.70;;;;;;5041935;28;1232;-69
2023/10/01 13:13:29;;;;;;;;;;;20.70;64.80;;;;;;5043215;28;1230;-70
2023/10/01 13:15:55;;;;;;;;;;;20.70;64.80;;;;;;5044480;28;1379;-70
2023/10/01 13:18:28;;;;;;;;;;;20.70;64.90;;;;;;5033870;28;4069;-69
2023/10/01 13:23:25;;;;;;;;;;;20.70;65.10;;;;;;5024726;28;1252;-70
2023/10/01 13:26:05;;;;;;;;;;;20.70;65.00;;;;;;5038578;28;2307;-71
2023/10/01 13:28:43;;;;;;;;;;;20.70;65.10;;;;;;5026805;28;1563;-71
2023/10/01 13:31:12;;;;;;;;;;;20.70;65.10;;;;;;5042514;28;1450;-71
2023/10/01 13:36:35;;;;;;;;;;;20.70;64.70;;;;;;5043715;28;1230;-70
2023/10/01 14:09:47;;;;;;;;;;;20.70;65.30;;;;;;5022415;28;4609;-71
2023/10/01 14:12:11;;;;;;;;;;;20.70;65.40;;;;;;5050080;22;1873;-65
2023/10/01 14:14:37;;;;;;;;;;;20.70;65.40;;;;;;5013108;28;1815;-65
2023/10/01 14:17:14;;;;;;;;;;;20.70;65.50;;;;;;5026058;28;1296;-65
2023/10/01 14:19:51;;;;;;;;;;;20.70;65.50;;;;;;5020470;28;1968;-65
2023/10/01 14:22:20;;;;;;;;;;;20.70;65.60;;;;;;5044869;28;1919;-66
2023/10/01 14:24:46;;;;;;;;;;;20.70;65.60;;;;;;5029139;28;1557;-67
2023/10/01 14:27:24;;;;;;;;;;;20.70;65.60;;;;;;5043198;28;1364;-65
2023/10/01 14:30:23;;;;;;;;;;;20.70;65.70;;;;;;5029925;28;1359;-65
2023/10/01 14:32:51;;;;;;;;;;;20.70;65.70;;;;;;5042657;28;1361;-66
2023/10/01 14:35:16;;;;;;;;;;;20.70;65.70;;;;;;5041816;28;1181;-66
2023/10/01 14:37:53;;;;;;;;;;;20.70;65.80;;;;;;5029396;28;2029;-65
2023/10/01 14:40:26;;;;;;;;;;;20.70;65.80;;;;;;5026947;28;1898;-65
2023/10/01 14:43:09;;;;;;;;;;;20.70;65.80;;;;;;5025289;28;1512;-65
2023/10/01 14:45:42;;;;;;;;;;;20.70;65.90;;;;;;5042134;28;1322;-65
2023/10/01 14:48:07;;;;;;;;;;;20.70;65.90;;;;;;5037874;28;1854;-65
2023/10/01 14:50:39;;;;;;;;;;;20.70;65.90;;;;;;5039397;28;1289;-65
2023/10/01 14:53:08;;;;;;;;;;;20.70;65.90;;;;;;5026124;28;927;-65
2023/10/01 14:55:40;;;;;;;;;;;20.70;66.00;;;;;;5041732;28;1520;-65
2023/10/01 14:58:12;;;;;;;;;;;20.70;65.90;;;;;;5024309;28;1234;-65
2023/10/01 15:00:49;;;;;;;;;;;20.70;66.00;;;;;;5041395;28;1940;-65
2023/10/01 15:03:18;;;;;;;;;;;20.70;66.00;;;;;;5042119;28;1179;-65
2023/10/01 15:05:43;;;;;;;;;;;20.70;66.00;;;;;;5041432;28;1240;-65
2023/10/01 15:08:09;;;;;;;;;;;20.70;66.10;;;;;;5029947;28;1340;-65
2023/10/01 15:10:34;;;;;;;;;;;20.70;66.10;;;;;;5026253;28;1248;-65
2023/10/01 15:13:01;;;;;;;;;;;20.70;66.10;;;;;;5040873;28;1052;-65
2023/10/01 15:15:27;;;;;;;;;;;20.70;66.10;;;;;;5041175;28;914;-65
2023/10/01 15:17:56;;;;;;;;;;;20.70;66.20;;;;;;5040987;28;1974;-66
2023/10/01 15:20:47;;;;;;;;;;;20.70;66.20;;;;;;5042420;28;1910;-66
2023/10/01 15:23:15;;;;;;;;;;;20.70;66.20;;;;;;5040304;28;1134;-65
2023/10/01 15:25:41;;;;;;;;;;;20.70;66.20;;;;;;5044854;28;1347;-65
2023/10/01 15:28:09;;;;;;;;;;;20.70;66.30;;;;;;5026602;28;1278;-65
2023/10/01 15:30:38;;;;;;;;;;;20.70;66.30;;;;;;5027403;28;5493;-64
2023/10/01 15:33:13;;;;;;;;;;;20.70;66.30;;;;;;5039811;28;1372;-66
2023/10/01 15:35:43;;;;;;;;;;;20.70;66.40;;;;;;5046480;28;1251;-66
2023/10/01 15:38:09;;;;;;;;;;;20.70;66.80;;;;;;5032842;28;1249;-65
2023/10/01 15:40:38;;;;;;;;;;;20.70;66.40;;;;;;5040140;28;1955;-65
2023/10/01 15:43:04;;;;;;;;;;;20.70;66.40;;;;;;5025413;28;1468;-64
2023/10/01 15:45:30;;;;;;;;;;;20.70;66.40;;;;;;5058625;28;1403;-65
2023/10/01 15:47:58;;;;;;;;;;;20.70;66.50;;;;;;5037428;28;1405;-65
2023/10/01 15:50:37;;;;;;;;;;;20.70;66.50;;;;;;5025060;28;2181;-66
2023/10/01 15:53:04;;;;;;;;;;;20.70;66.50;;;;;;5039315;28;1620;-65
2023/10/01 15:55:32;;;;;;;;;;;20.70;66.50;;;;;;5038531;28;2103;-65
2023/10/01 15:58:01;;;;;;;;;;;20.70;66.50;;;;;;5043312;28;1889;-65
2023/10/01 16:00:27;;;;;;;;;;;20.70;66.60;;;;;;5021985;28;1898;-65
2023/10/01 16:03:02;;;;;;;;;;;20.70;66.60;;;;;;5042286;28;1634;-65
2023/10/01 16:05:45;;;;;;;;;;;20.70;66.70;;;;;;5043158;28;1217;-65